Time;durP1;ratioP1;P1;durP2;ratioP2;P2;SDS_P1;SDS_P2;PMS_P1;PMS_P2;Temp;Humidity;BMP_temperature;BMP_pressure;BME280_temperature;BME280_humidity;BME280_pressure;Samples;Min_cycle;Max_cycle;Signal;HPM_P1;HPM_P2
2021/05/29 00:02:41;;;;;;;4.88;2.10;;;;;;;;;;6149263;23;20371;-79
2021/05/29 00:05:29;;;;;;;2.88;2.10;;;;;;;;;;6147870;23;20084;-80
2021/05/29 00:08:15;;;;;;;4.20;2.25;;;;;;;;;;6148959;23;20055;-80
2021/05/29 00:11:03;;;;;;;4.47;2.30;;;;;;;;;;6147553;23;20063;-79
2021/05/29 00:13:48;;;;;;;3.53;2.30;;;;;;;;;;6149404;23;20103;-80
2021/05/29 00:16:34;;;;;;;2.97;2.53;;;;;;;;;;6146816;23;19998;-79
2021/05/29 00:19:19;;;;;;;5.40;2.28;;;;;;;;;;6148889;23;20036;-79
2021/05/29 00:22:04;;;;;;;4.43;2.03;;;;;;;;;;6169349;23;20330;-80
2021/05/29 00:24:49;;;;;;;5.72;2.17;;;;;;;;;;6147612;23;20001;-79
2021/05/29 00:27:35;;;;;;;4.32;2.25;;;;;;;;;;6148870;23;20001;-79
2021/05/29 00:30:20;;;;;;;3.78;2.28;;;;;;;;;;6147486;23;20442;-78
2021/05/29 00:33:06;;;;;;;4.07;2.55;;;;;;;;;;6148834;23;20012;-79
2021/05/29 00:35:51;;;;;;;5.05;2.40;;;;;;;;;;6147484;23;20625;-78
2021/05/29 00:38:36;;;;;;;4.07;2.00;;;;;;;;;;6148682;23;19997;-78
2021/05/29 00:41:21;;;;;;;4.65;2.22;;;;;;;;;;6145172;23;20012;-78
2021/05/29 00:44:07;;;;;;;3.78;2.05;;;;;;;;;;6148288;23;20461;-78
2021/05/29 00:46:52;;;;;;;4.18;2.35;;;;;;;;;;6144931;23;20029;-79
2021/05/29 00:49:37;;;;;;;2.95;1.90;;;;;;;;;;6148492;23;20005;-79
2021/05/29 00:52:39;;;;;;;3.55;1.95;;;;;;;;;;5090438;27;20179;-79
2021/05/29 00:55:24;;;;;;;5.30;2.05;;;;;;;;;;5067265;28;20044;-79
2021/05/29 00:58:10;;;;;;;4.20;1.90;;;;;;;;;;5081747;28;20031;-79
2021/05/29 01:00:55;;;;;;;4.95;2.20;;;;;;;;;;5089993;28;20248;-78
2021/05/29 01:03:41;;;;;;;3.75;2.05;;;;;;;;;;5081249;28;20031;-78
2021/05/29 01:06:26;;;;;;;4.57;2.15;;;;;;;;;;5083574;28;20024;-78
2021/05/29 01:09:11;;;;;;;3.33;2.30;;;;;;;;;;5085587;28;20473;-80
2021/05/29 01:11:56;;;;;;;4.68;2.40;;;;;;;;;;5092427;28;20039;-79
2021/05/29 01:14:49;;;;;;;4.75;1.92;;;;;;;;;;5079150;28;20028;-79
2021/05/29 01:17:34;;;;;;;3.22;2.28;;;;;;;;;;5061559;28;20040;-79
2021/05/29 01:20:20;;;;;;;5.97;2.50;;;;;;;;;;5056772;28;20107;-80
2021/05/29 01:23:05;;;;;;;5.72;2.15;;;;;;;;;;5060304;28;20036;-79
2021/05/29 01:25:50;;;;;;;5.35;2.25;;;;;;;;;;5057940;28;20032;-79
2021/05/29 01:28:35;;;;;;;4.70;2.63;;;;;;;;;;5066495;28;20025;-79
2021/05/29 01:31:25;;;;;;;4.45;2.85;;;;;;;;;;5067263;28;20104;-79
2021/05/29 01:34:10;;;;;;;;;;;;;;;;;;5061336;28;20033;-79
2021/05/29 01:36:56;;;;;;;3.65;2.00;;;;;;;;;;5053425;28;20351;-79
2021/05/29 01:39:42;;;;;;;4.28;2.15;;;;;;;;;;5059687;28;20029;-80
2021/05/29 01:42:28;;;;;;;4.88;2.40;;;;;;;;;;5064941;28;20497;-79
2021/05/29 01:45:14;;;;;;;3.90;2.35;;;;;;;;;;5058476;28;20031;-79
2021/05/29 01:48:02;;;;;;;3.78;2.10;;;;;;;;;;5054054;28;20467;-80
2021/05/29 01:50:48;;;;;;;5.68;2.60;;;;;;;;;;5063356;28;20135;-80
2021/05/29 01:53:34;;;;;;;3.15;2.13;;;;;;;;;;5064378;28;20459;-79
2021/05/29 01:56:19;;;;;;;4.90;2.28;;;;;;;;;;5069217;28;20024;-81
2021/05/29 01:59:04;;;;;;;4.75;2.28;;;;;;;;;;5064187;28;20082;-80
2021/05/29 02:01:49;;;;;;;5.30;2.17;;;;;;;;;;5069553;28;20389;-80
2021/05/29 02:04:34;;;;;;;4.53;2.75;;;;;;;;;;5037986;28;20402;-80
2021/05/29 02:07:22;;;;;;;4.55;2.13;;;;;;;;;;5042150;28;20044;-81
2021/05/29 02:10:08;;;;;;;4.65;2.22;;;;;;;;;;5051164;28;20036;-81
2021/05/29 02:12:55;;;;;;;6.55;2.40;;;;;;;;;;5057212;28;20097;-81
2021/05/29 02:15:41;;;;;;;5.07;2.35;;;;;;;;;;5059413;28;20039;-81
2021/05/29 02:18:26;;;;;;;6.40;2.53;;;;;;;;;;5055889;28;20031;-81
2021/05/29 02:21:13;;;;;;;3.53;2.38;;;;;;;;;;5053100;28;20450;-81
2021/05/29 02:23:58;;;;;;;6.88;2.70;;;;;;;;;;5052568;28;20021;-80
2021/05/29 02:26:43;;;;;;;4.80;2.50;;;;;;;;;;5048933;28;20017;-81
2021/05/29 02:29:28;;;;;;;3.78;2.60;;;;;;;;;;5055788;28;20023;-77
2021/05/29 02:32:13;;;;;;;4.35;2.50;;;;;;;;;;5052140;28;20024;-78
2021/05/29 02:34:59;;;;;;;4.22;2.60;;;;;;;;;;5049690;28;20078;-78
2021/05/29 02:37:44;;;;;;;4.07;2.70;;;;;;;;;;5052234;28;20371;-78
2021/05/29 02:40:29;;;;;;;5.07;2.30;;;;;;;;;;5048747;28;20501;-79
2021/05/29 02:43:14;;;;;;;4.10;2.20;;;;;;;;;;5053549;28;20391;-78
2021/05/29 02:46:00;;;;;;;2.95;2.10;;;;;;;;;;5045028;28;20378;-78
2021/05/29 02:48:45;;;;;;;4.82;2.05;;;;;;;;;;5043531;28;20031;-78
2021/05/29 02:51:30;;;;;;;5.63;2.42;;;;;;;;;;5050939;28;20045;-79
2021/05/29 02:54:16;;;;;;;2.22;1.95;;;;;;;;;;5057261;28;20025;-78
2021/05/29 02:57:01;;;;;;;5.28;2.80;;;;;;;;;;5050770;28;20037;-78
2021/05/29 02:59:46;;;;;;;3.60;2.60;;;;;;;;;;5055360;28;20040;-78
2021/05/29 03:02:31;;;;;;;4.72;2.60;;;;;;;;;;5049395;28;20494;-78
2021/05/29 03:05:17;;;;;;;4.28;2.38;;;;;;;;;;5056051;28;20036;-78
2021/05/29 03:08:03;;;;;;;4.32;2.33;;;;;;;;;;5050855;28;20028;-77
2021/05/29 03:10:50;;;;;;;6.20;2.55;;;;;;;;;;5053167;28;20447;-78
2021/05/29 03:13:36;;;;;;;5.65;2.67;;;;;;;;;;5054442;28;20146;-78
2021/05/29 03:16:21;;;;;;;3.97;2.55;;;;;;;;;;5056818;28;20475;-78
2021/05/29 03:19:06;;;;;;;4.43;2.92;;;;;;;;;;5055926;28;20024;-80
2021/05/29 03:21:54;;;;;;;4.82;2.60;;;;;;;;;;5055543;28;20055;-78
2021/05/29 03:24:39;;;;;;;5.55;2.65;;;;;;;;;;5053784;28;20152;-80
2021/05/29 03:27:25;;;;;;;3.63;3.00;;;;;;;;;;5049100;28;20036;-80
2021/05/29 03:30:12;;;;;;;5.80;2.80;;;;;;;;;;5058423;28;20020;-81
2021/05/29 03:32:58;;;;;;;6.85;2.72;;;;;;;;;;5045274;28;20031;-81
2021/05/29 03:35:43;;;;;;;3.35;2.33;;;;;;;;;;5053498;28;20636;-78
2021/05/29 03:38:28;;;;;;;4.35;2.85;;;;;;;;;;5048901;28;20518;-78
2021/05/29 03:41:13;;;;;;;4.82;2.65;;;;;;;;;;5059561;28;20467;-81
2021/05/29 03:44:00;;;;;;;4.15;2.65;;;;;;;;;;5048145;28;20028;-81
2021/05/29 03:46:46;;;;;;;3.85;2.63;;;;;;;;;;5051951;28;20025;-79
2021/05/29 03:49:31;;;;;;;5.30;2.67;;;;;;;;;;5058159;28;20692;-78
2021/05/29 03:52:16;;;;;;;7.00;2.92;;;;;;;;;;5051289;28;20175;-81
2021/05/29 03:55:03;;;;;;;5.25;2.50;;;;;;;;;;5051997;28;20021;-78
2021/05/29 03:57:49;;;;;;;5.00;2.70;;;;;;;;;;5044982;28;20062;-80
2021/05/29 04:00:34;;;;;;;3.88;2.60;;;;;;;;;;5054421;28;20545;-79
2021/05/29 04:03:19;;;;;;;5.03;2.40;;;;;;;;;;5052664;28;20464;-79
2021/05/29 04:06:05;;;;;;;3.63;2.20;;;;;;;;;;5056009;28;20020;-79
2021/05/29 04:08:50;;;;;;;5.40;2.42;;;;;;;;;;5037537;28;20016;-79
2021/05/29 04:11:35;;;;;;;2.90;2.50;;;;;;;;;;5056784;28;20035;-78
2021/05/29 04:14:21;;;;;;;4.43;2.65;;;;;;;;;;5050524;28;20449;-78
2021/05/29 04:17:06;;;;;;;4.40;2.80;;;;;;;;;;5049069;28;20036;-79
2021/05/29 04:19:51;;;;;;;5.32;2.72;;;;;;;;;;5048926;28;20013;-79
2021/05/29 04:22:36;;;;;;;4.07;2.70;;;;;;;;;;5057875;28;20089;-81
2021/05/29 04:25:26;;;;;;;3.85;2.85;;;;;;;;;;5051946;28;20035;-80
2021/05/29 04:28:12;;;;;;;5.00;2.80;;;;;;;;;;5054268;28;20478;-80
2021/05/29 04:30:57;;;;;;;5.03;3.58;;;;;;;;;;5052195;28;20344;-81
2021/05/29 04:33:42;;;;;;;4.03;2.85;;;;;;;;;;5056875;28;20387;-81
2021/05/29 04:36:27;;;;;;;5.05;2.83;;;;;;;;;;5054192;28;20024;-81
2021/05/29 04:39:12;;;;;;;6.00;2.95;;;;;;;;;;5037883;28;20025;-80
2021/05/29 04:41:58;;;;;;;4.57;3.15;;;;;;;;;;5050331;28;20059;-80
2021/05/29 04:44:43;;;;;;;3.83;2.50;;;;;;;;;;5053818;28;20072;-80
2021/05/29 04:47:28;;;;;;;4.82;2.70;;;;;;;;;;5046457;28;20044;-80
2021/05/29 04:50:14;;;;;;;6.75;3.00;;;;;;;;;;5049673;28;20086;-81
2021/05/29 04:52:59;;;;;;;6.00;3.08;;;;;;;;;;5052675;28;20347;-82
2021/05/29 04:55:44;;;;;;;7.45;3.08;;;;;;;;;;5036628;28;20466;-82
2021/05/29 04:58:29;;;;;;;3.88;2.55;;;;;;;;;;5060631;28;20340;-81
2021/05/29 05:01:15;;;;;;;3.97;2.70;;;;;;;;;;5048656;28;20135;-79
2021/05/29 05:04:00;;;;;;;4.45;2.72;;;;;;;;;;5054272;28;20095;-78
2021/05/29 05:06:45;;;;;;;4.43;2.80;;;;;;;;;;5049806;28;20431;-78
2021/05/29 05:09:31;;;;;;;6.00;3.00;;;;;;;;;;5048279;28;20032;-78
2021/05/29 05:12:16;;;;;;;6.63;4.28;;;;;;;;;;5048524;28;20078;-78
2021/05/29 05:15:01;;;;;;;5.18;2.70;;;;;;;;;;5053899;28;20262;-78
2021/05/29 05:17:46;;;;;;;10.90;3.67;;;;;;;;;;5050628;28;20021;-79
2021/05/29 05:20:31;;;;;;;3.58;2.65;;;;;;;;;;5056778;28;20016;-80
2021/05/29 05:23:21;;;;;;;5.72;3.85;;;;;;;;;;5054012;28;20097;-79
2021/05/29 05:26:06;;;;;;;4.50;3.10;;;;;;;;;;5053744;28;20203;-81
2021/05/29 05:28:51;;;;;;;6.10;3.03;;;;;;;;;;5052017;28;20076;-80
2021/05/29 05:31:37;;;;;;;5.10;2.72;;;;;;;;;;5055409;28;20028;-80
2021/05/29 05:34:22;;;;;;;5.80;3.28;;;;;;;;;;5051727;28;20020;-80
2021/05/29 05:37:08;;;;;;;5.57;2.92;;;;;;;;;;5044990;28;20024;-80
2021/05/29 05:39:53;;;;;;;6.45;3.63;;;;;;;;;;5054091;28;20529;-81
2021/05/29 05:42:38;;;;;;;6.00;3.65;;;;;;;;;;5052480;28;20052;-78
2021/05/29 05:45:23;;;;;;;4.88;3.17;;;;;;;;;;5051982;28;20112;-80
2021/05/29 05:48:09;;;;;;;7.75;3.22;;;;;;;;;;5052956;28;20028;-80
2021/05/29 05:50:58;;;;;;;9.95;5.63;;;;;;;;;;5052989;28;20519;-79
2021/05/29 05:53:49;;;;;;;6.82;4.53;;;;;;;;;;5054533;28;20382;-80
2021/05/29 06:00:15;;;;;;;6.80;3.20;;;;;;;;;;5053933;28;20035;-80
2021/05/29 06:03:00;;;;;;;3.85;2.80;;;;;;;;;;5053528;28;20016;-78
2021/05/29 06:05:46;;;;;;;4.45;2.70;;;;;;;;;;5063169;28;20088;-78
2021/05/29 06:08:31;;;;;;;3.78;2.58;;;;;;;;;;5062054;28;20024;-80
2021/05/29 06:11:16;;;;;;;6.15;2.72;;;;;;;;;;5055331;28;20035;-81
2021/05/29 06:19:51;;;;;;;5.93;3.22;;;;;;;;;;5053980;28;20684;-79
2021/05/29 06:22:36;;;;;;;4.80;2.72;;;;;;;;;;5055264;28;20089;-78
2021/05/29 06:25:21;;;;;;;5.85;3.60;;;;;;;;;;5050974;28;20101;-78
2021/05/29 06:28:07;;;;;;;5.35;2.78;;;;;;;;;;5055728;28;20513;-77
2021/05/29 06:30:52;;;;;;;7.45;2.80;;;;;;;;;;5059576;28;20032;-77
2021/05/29 06:33:37;;;;;;;5.32;2.53;;;;;;;;;;5053053;28;20086;-78
2021/05/29 06:36:22;;;;;;;4.70;2.85;;;;;;;;;;5058610;28;20509;-80
2021/05/29 06:39:07;;;;;;;6.32;2.40;;;;;;;;;;5052074;28;20448;-79
2021/05/29 06:41:53;;;;;;;4.90;2.60;;;;;;;;;;5056413;28;20027;-79
2021/05/29 06:44:38;;;;;;;2.80;2.47;;;;;;;;;;5050230;28;20028;-78
2021/05/29 06:47:23;;;;;;;3.72;2.05;;;;;;;;;;5060110;28;20427;-78
2021/05/29 06:50:09;;;;;;;5.60;3.08;;;;;;;;;;5050182;28;22716;-78
2021/05/29 06:52:57;;;;;;;7.15;4.32;;;;;;;;;;5061750;28;20047;-79
2021/05/29 06:58:53;;;;;;;3.50;2.47;;;;;;;;;;5062716;28;20025;-78
2021/05/29 07:01:38;;;;;;;4.78;2.83;;;;;;;;;;5044655;28;20036;-78
2021/05/29 07:04:23;;;;;;;3.08;2.17;;;;;;;;;;5060196;28;20111;-78
2021/05/29 07:07:08;;;;;;;4.72;2.75;;;;;;;;;;5049338;28;20028;-78
2021/05/29 07:09:53;;;;;;;4.03;2.50;;;;;;;;;;5054619;28;20473;-81
2021/05/29 07:12:39;;;;;;;3.55;2.17;;;;;;;;;;5051663;28;20567;-78
2021/05/29 07:15:28;;;;;;;3.33;2.10;;;;;;;;;;5053444;28;20024;-80
2021/05/29 07:18:15;;;;;;;;;;;;;;;;;;5049716;28;20029;-80
2021/05/29 07:21:02;;;;;;;3.28;2.03;;;;;;;;;;5038320;28;19908;-80
2021/05/29 07:23:47;;;;;;;3.90;2.30;;;;;;;;;;5052749;28;20035;-79
2021/05/29 07:26:33;;;;;;;3.05;1.98;;;;;;;;;;5054459;28;20024;-88
2021/05/29 07:29:18;;;;;;;3.80;2.40;;;;;;;;;;5038884;28;20482;-85
2021/05/29 07:32:04;;;;;;;4.00;2.10;;;;;;;;;;5051907;28;20089;-81
2021/05/29 07:34:49;;;;;;;4.45;1.92;;;;;;;;;;5052364;28;20032;-81
2021/05/29 07:37:36;;;;;;;3.03;1.85;;;;;;;;;;5058683;28;20093;-83
2021/05/29 07:40:21;;;;;;;5.20;2.00;;;;;;;;;;5049261;28;20108;-85
2021/05/29 07:43:06;;;;;;;2.10;1.77;;;;;;;;;;5049719;28;20115;-81
2021/05/29 07:45:52;;;;;;;2.60;2.00;;;;;;;;;;5052409;28;20016;-87
2021/05/29 07:48:38;;;;;;;4.10;1.75;;;;;;;;;;5049539;28;20522;-91
2021/05/29 07:51:23;;;;;;;4.80;1.90;;;;;;;;;;5051225;28;20045;-91
2021/05/29 07:54:10;;;;;;;4.97;2.03;;;;;;;;;;5058714;28;20540;-91
2021/05/29 07:56:55;;;;;;;2.22;1.48;;;;;;;;;;5044212;28;20027;-92
2021/05/29 07:59:42;;;;;;;4.00;2.13;;;;;;;;;;5056046;28;20043;-92
2021/05/29 08:02:29;;;;;;;3.85;1.80;;;;;;;;;;5057969;28;20584;-92
2021/05/29 08:05:20;;;;;;;1.90;1.70;;;;;;;;;;5044310;28;20107;-92
2021/05/29 08:08:05;;;;;;;5.45;1.70;;;;;;;;;;5059593;28;20035;-92
2021/05/29 08:10:53;;;;;;;5.75;2.70;;;;;;;;;;5055248;28;20028;-91
2021/05/29 08:13:38;;;;;;;3.03;1.42;;;;;;;;;;5056127;28;20017;-89
2021/05/29 08:16:23;;;;;;;2.65;1.80;;;;;;;;;;5044994;28;20016;-89
2021/05/29 08:19:11;;;;;;;6.05;2.28;;;;;;;;;;5052543;28;20439;-89
2021/05/29 08:21:56;;;;;;;3.72;2.50;;;;;;;;;;5061208;28;20031;-91
2021/05/29 08:24:42;;;;;;;2.75;1.85;;;;;;;;;;5055929;28;20024;-90
2021/05/29 08:27:28;;;;;;;6.50;2.65;;;;;;;;;;5060612;28;20029;-91
2021/05/29 08:30:13;;;;;;;2.97;1.58;;;;;;;;;;5043934;28;20020;-90
2021/05/29 08:32:59;;;;;;;2.63;1.55;;;;;;;;;;5062363;28;20066;-91
2021/05/29 08:35:45;;;;;;;2.72;1.63;;;;;;;;;;5058009;28;20256;-91
2021/05/29 08:38:30;;;;;;;2.88;1.73;;;;;;;;;;5057476;28;20528;-91
2021/05/29 08:41:16;;;;;;;2.15;1.65;;;;;;;;;;5053853;28;20512;-90
2021/05/29 08:44:02;;;;;;;3.42;1.90;;;;;;;;;;5059610;28;20024;-88
2021/05/29 08:46:48;;;;;;;3.50;2.20;;;;;;;;;;5052339;28;20081;-87
2021/05/29 08:49:35;;;;;;;2.28;1.77;;;;;;;;;;5053644;28;20043;-87
2021/05/29 08:52:20;;;;;;;3.30;1.98;;;;;;;;;;5034798;28;20037;-85
2021/05/29 08:55:07;;;;;;;3.22;1.58;;;;;;;;;;5048021;28;20049;-86
2021/05/29 08:57:52;;;;;;;2.95;1.70;;;;;;;;;;5053609;28;20025;-87
2021/05/29 09:00:38;;;;;;;6.20;1.55;;;;;;;;;;5044775;28;20104;-86
2021/05/29 09:03:23;;;;;;;2.97;1.65;;;;;;;;;;5052805;28;20024;-87
2021/05/29 09:06:09;;;;;;;2.95;1.60;;;;;;;;;;5053207;28;20465;-88
2021/05/29 09:08:55;;;;;;;2.95;1.75;;;;;;;;;;5054678;28;20096;-87
2021/05/29 09:11:49;;;;;;;2.45;1.73;;;;;;;;;;5045654;28;20025;-88
2021/05/29 09:14:36;;;;;;;2.60;1.60;;;;;;;;;;5053404;28;20562;-88
2021/05/29 09:17:22;;;;;;;4.00;1.63;;;;;;;;;;5049102;28;20025;-88
2021/05/29 09:20:12;;;;;;;4.40;1.95;;;;;;;;;;5059630;28;20066;-87
2021/05/29 09:22:58;;;;;;;2.85;1.67;;;;;;;;;;5056731;28;20016;-88
2021/05/29 09:25:52;;;;;;;2.30;1.80;;;;;;;;;;5052213;28;20104;-88
2021/05/29 09:28:41;;;;;;;3.03;1.90;;;;;;;;;;5033891;28;20013;-87
2021/05/29 09:31:26;;;;;;;2.92;1.70;;;;;;;;;;5064066;28;20120;-86
2021/05/29 09:34:11;;;;;;;6.72;2.17;;;;;;;;;;5052723;28;20040;-86
2021/05/29 09:37:01;;;;;;;2.28;1.73;;;;;;;;;;5052911;28;20032;-87
2021/05/29 09:39:48;;;;;;;5.32;1.83;;;;;;;;;;5068202;28;20027;-87
2021/05/29 09:42:35;;;;;;;3.40;1.88;;;;;;;;;;5041567;28;20057;-88
2021/05/29 09:45:21;;;;;;;4.38;1.73;;;;;;;;;;5051581;28;20067;-87
2021/05/29 09:48:09;;;;;;;2.65;2.00;;;;;;;;;;5055131;28;20033;-88
2021/05/29 09:50:58;;;;;;;3.30;1.60;;;;;;;;;;5057298;28;20041;-87
2021/05/29 09:53:51;;;;;;;5.47;2.10;;;;;;;;;;5057925;28;20391;-87
2021/05/29 09:56:42;;;;;;;2.92;2.03;;;;;;;;;;5058786;28;20122;-88
2021/05/29 09:59:27;;;;;;;2.72;1.58;;;;;;;;;;5059606;28;20051;-88
2021/05/29 10:02:14;;;;;;;2.00;1.80;;;;;;;;;;5047247;28;20024;-88
2021/05/29 10:05:00;;;;;;;4.00;1.88;;;;;;;;;;5063317;28;20463;-88
2021/05/29 10:07:45;;;;;;;3.10;2.00;;;;;;;;;;5064437;28;20032;-89
2021/05/29 10:10:33;;;;;;;4.03;1.75;;;;;;;;;;5067893;28;20030;-89
2021/05/29 10:13:18;;;;;;;3.92;2.53;;;;;;;;;;5063881;28;20028;-89
2021/05/29 10:16:04;;;;;;;3.45;1.83;;;;;;;;;;5043661;28;20027;-89
2021/05/29 10:19:01;;;;;;;3.58;1.92;;;;;;;;;;5062307;28;20134;-89
2021/05/29 10:21:49;;;;;;;3.67;1.92;;;;;;;;;;5073115;28;20077;-88
2021/05/29 10:24:36;;;;;;;2.67;1.80;;;;;;;;;;5060457;28;20035;-88
2021/05/29 10:27:25;;;;;;;4.55;1.88;;;;;;;;;;5073295;28;20104;-88
2021/05/29 10:30:11;;;;;;;4.40;1.90;;;;;;;;;;5055355;28;20031;-88
2021/05/29 10:33:15;;;;;;;2.83;2.13;;;;;;;;;;5058846;28;20045;-88
2021/05/29 10:36:05;;;;;;;4.10;1.98;;;;;;;;;;5059911;28;20028;-88
2021/05/29 10:38:50;;;;;;;3.53;1.80;;;;;;;;;;5057002;28;20051;-88
2021/05/29 10:41:55;;;;;;;3.38;1.73;;;;;;;;;;5058181;28;20024;-88
2021/05/29 10:44:42;;;;;;;5.53;1.75;;;;;;;;;;5055130;28;20123;-88
2021/05/29 10:47:27;;;;;;;3.55;1.70;;;;;;;;;;5058325;28;20021;-89
2021/05/29 10:50:12;;;;;;;4.63;1.80;;;;;;;;;;5055080;28;20044;-88
2021/05/29 10:52:58;;;;;;;2.28;1.17;;;;;;;;;;5037552;28;20032;-88
2021/05/29 10:55:43;;;;;;;4.22;1.90;;;;;;;;;;5054667;28;20555;-88
2021/05/29 10:58:51;;;;;;;2.45;1.52;;;;;;;;;;5061020;28;20028;-88
2021/05/29 11:01:43;;;;;;;2.95;1.40;;;;;;;;;;5047110;28;20344;-89
2021/05/29 11:04:29;;;;;;;4.40;2.08;;;;;;;;;;5061540;28;20028;-88
2021/05/29 11:07:19;;;;;;;3.55;1.45;;;;;;;;;;5061388;28;20381;-88
2021/05/29 11:10:04;;;;;;;2.78;1.80;;;;;;;;;;5065755;28;20020;-88
2021/05/29 11:12:51;;;;;;;1.73;1.30;;;;;;;;;;5056907;28;20105;-88
2021/05/29 11:15:53;;;;;;;2.35;1.50;;;;;;;;;;5047376;28;20494;-88
2021/05/29 11:18:58;;;;;;;1.63;1.13;;;;;;;;;;5063098;28;20027;-87
2021/05/29 11:22:03;;;;;;;2.50;1.42;;;;;;;;;;5056168;28;20502;-88
2021/05/29 11:24:48;;;;;;;1.67;1.30;;;;;;;;;;5057590;28;20102;-87
2021/05/29 11:27:34;;;;;;;2.72;1.50;;;;;;;;;;5056704;28;20131;-87
2021/05/29 11:30:20;;;;;;;3.30;1.60;;;;;;;;;;5063067;28;20036;-85
2021/05/29 11:35:51;;;;;;;2.88;1.60;;;;;;;;;;5050311;28;20028;-81
2021/05/29 11:38:40;;;;;;;3.72;1.45;;;;;;;;;;5057573;28;20036;-85
2021/05/29 11:41:25;;;;;;;2.85;1.50;;;;;;;;;;5054402;28;20076;-86
2021/05/29 11:44:21;;;;;;;2.38;1.10;;;;;;;;;;5065107;28;20017;-88
2021/05/29 11:47:13;;;;;;;2.08;1.50;;;;;;;;;;5058817;28;20048;-88
2021/05/29 11:49:58;;;;;;;1.63;1.20;;;;;;;;;;5057711;28;20021;-88
2021/05/29 11:52:45;;;;;;;1.95;1.13;;;;;;;;;;5061427;28;20475;-88
2021/05/29 11:55:48;;;;;;;2.90;1.10;;;;;;;;;;5051262;28;20025;-87
2021/05/29 11:58:46;;;;;;;5.13;1.48;;;;;;;;;;5058670;28;20048;-86
2021/05/29 12:01:33;;;;;;;3.58;1.15;;;;;;;;;;5044786;28;20074;-85
2021/05/29 12:04:23;;;;;;;3.40;1.45;;;;;;;;;;5054399;28;20397;-86
2021/05/29 12:07:08;;;;;;;3.05;1.15;;;;;;;;;;5055259;28;20139;-86
2021/05/29 12:09:53;;;;;;;2.08;1.20;;;;;;;;;;5041845;28;20056;-87
2021/05/29 12:12:40;;;;;;;1.48;1.13;;;;;;;;;;5050670;28;20296;-85
2021/05/29 12:15:25;;;;;;;6.47;1.25;;;;;;;;;;5055444;28;20028;-83
2021/05/29 12:18:10;;;;;;;3.22;1.23;;;;;;;;;;5057316;28;20087;-87
2021/05/29 12:20:57;;;;;;;3.10;2.22;;;;;;;;;;5054041;28;20055;-84
2021/05/29 12:23:55;;;;;;;47.42;39.30;;;;;;;;;;5052502;28;20105;-83
2021/05/29 12:26:41;;;;;;;38.50;33.03;;;;;;;;;;5057885;28;20028;-83
2021/05/29 12:29:26;;;;;;;3.17;2.20;;;;;;;;;;5036141;28;20161;-80
2021/05/29 12:32:27;;;;;;;2.60;0.90;;;;;;;;;;5048961;28;20063;-80
2021/05/29 12:35:27;;;;;;;1.55;0.90;;;;;;;;;;5050591;28;20028;-80
2021/05/29 12:38:13;;;;;;;1.48;0.98;;;;;;;;;;5052304;28;20032;-80
2021/05/29 12:41:00;;;;;;;1.98;1.63;;;;;;;;;;5056527;28;20027;-80
2021/05/29 12:43:59;;;;;;;3.22;1.20;;;;;;;;;;5047702;28;20036;-81
2021/05/29 12:46:44;;;;;;;1.85;1.10;;;;;;;;;;5053947;28;20099;-79
2021/05/29 12:49:29;;;;;;;2.25;1.45;;;;;;;;;;5046803;28;20039;-79
2021/05/29 12:52:22;;;;;;;1.67;0.90;;;;;;;;;;5050151;28;20053;-79
2021/05/29 12:55:15;;;;;;;2.70;1.50;;;;;;;;;;5056544;28;20031;-80
2021/05/29 12:58:11;;;;;;;3.17;1.45;;;;;;;;;;5048688;28;20367;-80
2021/05/29 13:09:58;;;;;;;1.73;1.10;;;;;;;;;;5048664;28;20113;-79
2021/05/29 13:13:00;;;;;;;5.47;1.15;;;;;;;;;;5051935;28;20377;-80
2021/05/29 13:15:58;;;;;;;1.55;1.17;;;;;;;;;;5049036;28;20024;-80
2021/05/29 13:18:58;;;;;;;3.45;1.67;;;;;;;;;;5070649;28;20381;-80
2021/05/29 13:21:51;;;;;;;2.22;1.67;;;;;;;;;;5049546;28;20036;-80
2021/05/29 13:24:40;;;;;;;1.60;1.15;;;;;;;;;;5051166;28;20486;-79
2021/05/29 13:27:25;;;;;;;1.75;1.50;;;;;;;;;;5051590;28;20035;-82
2021/05/29 13:30:25;;;;;;;2.55;1.25;;;;;;;;;;5050252;28;20033;-82
2021/05/29 13:33:15;;;;;;;2.72;1.65;;;;;;;;;;5046332;28;20040;-79
2021/05/29 13:36:00;;;;;;;2.17;1.02;;;;;;;;;;5042508;28;20027;-81
2021/05/29 13:38:45;;;;;;;2.00;1.40;;;;;;;;;;5052210;28;20063;-82
2021/05/29 13:41:31;;;;;;;2.10;1.08;;;;;;;;;;5047062;28;20032;-82
2021/05/29 13:44:16;;;;;;;0.90;0.77;;;;;;;;;;5054200;28;20071;-80
2021/05/29 13:47:02;;;;;;;1.08;0.90;;;;;;;;;;5048945;28;20052;-81
2021/05/29 13:49:48;;;;;;;3.22;0.90;;;;;;;;;;5055466;28;20111;-82
2021/05/29 13:52:33;;;;;;;1.85;1.10;;;;;;;;;;5051165;28;20049;-80
2021/05/29 13:55:19;;;;;;;2.40;1.42;;;;;;;;;;5051560;28;20456;-79
2021/05/29 13:58:04;;;;;;;1.15;0.90;;;;;;;;;;5045917;28;20289;-80
2021/05/29 14:00:49;;;;;;;2.45;1.00;;;;;;;;;;5060032;28;20055;-79
2021/05/29 14:03:35;;;;;;;1.85;1.27;;;;;;;;;;5037632;28;20107;-80
2021/05/29 14:06:20;;;;;;;4.38;1.30;;;;;;;;;;5048465;28;20028;-79
2021/05/29 14:09:07;;;;;;;1.63;1.42;;;;;;;;;;5058228;28;20013;-79
2021/05/29 14:11:52;;;;;;;1.52;1.10;;;;;;;;;;5053935;28;20441;-79
2021/05/29 14:14:37;;;;;;;3.33;1.10;;;;;;;;;;5050429;28;20095;-79
2021/05/29 14:17:23;;;;;;;1.10;1.00;;;;;;;;;;5049667;28;20088;-78
2021/05/29 14:20:11;;;;;;;2.42;1.80;;;;;;;;;;5057187;28;20020;-78
2021/05/29 14:22:58;;;;;;;1.87;1.40;;;;;;;;;;5052034;28;20020;-78
2021/05/29 14:25:43;;;;;;;5.47;1.20;;;;;;;;;;5051170;28;20555;-79
2021/05/29 14:28:28;;;;;;;4.38;2.10;;;;;;;;;;5047390;28;20044;-79
2021/05/29 14:31:14;;;;;;;2.17;1.20;;;;;;;;;;5045492;28;20103;-79
2021/05/29 14:34:00;;;;;;;2.75;1.70;;;;;;;;;;5052806;28;20024;-78
2021/05/29 14:36:54;;;;;;;10.40;5.93;;;;;;;;;;5055185;28;20046;-79
2021/05/29 14:39:43;;;;;;;3.55;1.58;;;;;;;;;;5053489;28;20025;-79
2021/05/29 14:42:31;;;;;;;3.75;1.20;;;;;;;;;;5059724;28;20036;-79
2021/05/29 14:45:16;;;;;;;1.50;1.00;;;;;;;;;;5038678;28;20386;-79
2021/05/29 14:48:03;;;;;;;4.10;1.15;;;;;;;;;;5057241;28;20028;-80
2021/05/29 14:53:56;;;;;;;2.72;1.35;;;;;;;;;;5051311;28;20021;-78
2021/05/29 14:56:41;;;;;;;2.53;1.40;;;;;;;;;;5039834;28;20104;-81
2021/05/29 14:59:26;;;;;;;3.45;0.93;;;;;;;;;;5038168;28;20036;-81
2021/05/29 15:02:13;;;;;;;8.15;4.85;;;;;;;;;;5056479;28;20090;-81
2021/05/29 15:05:16;;;;;;;5.03;2.88;;;;;;;;;;5052934;28;20397;-80
2021/05/29 15:08:01;;;;;;;3.83;2.35;;;;;;;;;;5052070;28;20024;-80
2021/05/29 15:10:47;;;;;;;1.75;0.98;;;;;;;;;;5053075;28;20541;-80
2021/05/29 15:13:32;;;;;;;2.72;1.63;;;;;;;;;;5056936;28;20022;-82
2021/05/29 15:16:17;;;;;;;3.80;1.40;;;;;;;;;;5050331;28;20130;-81
2021/05/29 15:19:03;;;;;;;1.38;1.20;;;;;;;;;;5055961;28;20486;-81
2021/05/29 15:21:48;;;;;;;3.35;1.08;;;;;;;;;;5047291;28;20024;-80
2021/05/29 15:24:36;;;;;;;4.93;1.30;;;;;;;;;;5055357;28;20555;-80
2021/05/29 15:27:21;;;;;;;1.20;1.10;;;;;;;;;;5052078;28;20127;-80
2021/05/29 15:30:07;;;;;;;0.80;0.80;;;;;;;;;;5047684;28;20455;-80
2021/05/29 15:32:52;;;;;;;0.95;0.85;;;;;;;;;;5053079;28;20055;-80
2021/05/29 15:35:38;;;;;;;1.48;0.95;;;;;;;;;;5046194;28;20021;-80
2021/05/29 15:38:23;;;;;;;2.63;1.40;;;;;;;;;;5040626;28;20024;-81
2021/05/29 15:41:09;;;;;;;1.58;1.20;;;;;;;;;;5046872;28;20364;-81
2021/05/29 15:43:57;;;;;;;3.35;1.17;;;;;;;;;;5056369;28;20444;-80
2021/05/29 15:46:42;;;;;;;2.53;1.55;;;;;;;;;;5050151;28;20347;-80
2021/05/29 15:49:27;;;;;;;2.17;1.40;;;;;;;;;;5049371;28;20020;-80
2021/05/29 15:52:12;;;;;;;3.92;1.42;;;;;;;;;;5053536;28;20041;-79
2021/05/29 15:55:01;;;;;;;3.25;1.15;;;;;;;;;;5056851;28;20367;-81
2021/05/29 15:57:46;;;;;;;3.25;1.50;;;;;;;;;;5047849;28;20028;-80
2021/05/29 16:00:34;;;;;;;1.50;1.10;;;;;;;;;;5054257;28;20724;-83
2021/05/29 16:03:20;;;;;;;1.42;1.05;;;;;;;;;;5034513;28;20039;-83
2021/05/29 16:06:06;;;;;;;0.88;0.88;;;;;;;;;;5052589;28;20095;-82
2021/05/29 16:08:51;;;;;;;3.25;1.80;;;;;;;;;;5059785;28;20028;-83
2021/05/29 16:11:37;;;;;;;3.90;2.30;;;;;;;;;;5050677;28;20044;-82
2021/05/29 16:14:22;;;;;;;3.88;1.70;;;;;;;;;;5057721;28;20031;-83
2021/05/29 16:17:07;;;;;;;3.00;1.30;;;;;;;;;;5050840;28;20129;-83
2021/05/29 16:19:53;;;;;;;4.28;2.03;;;;;;;;;;5049873;28;20028;-82
2021/05/29 16:22:41;;;;;;;1.80;0.90;;;;;;;;;;5052762;28;20389;-81
2021/05/29 16:25:26;;;;;;;2.05;1.10;;;;;;;;;;5053461;28;20036;-81
2021/05/29 16:28:12;;;;;;;1.85;1.08;;;;;;;;;;5052887;28;20027;-81
2021/05/29 16:30:58;;;;;;;2.28;1.10;;;;;;;;;;5055537;28;20028;-81
2021/05/29 16:33:43;;;;;;;4.85;1.42;;;;;;;;;;5050303;28;21246;-81
2021/05/29 16:36:31;;;;;;;2.28;1.50;;;;;;;;;;5053093;28;20025;-81
2021/05/29 16:39:17;;;;;;;2.28;1.10;;;;;;;;;;5048847;28;20499;-81
2021/05/29 16:42:02;;;;;;;1.35;1.20;;;;;;;;;;5050127;28;20099;-81
2021/05/29 16:44:48;;;;;;;2.90;2.10;;;;;;;;;;5049306;28;20104;-81
2021/05/29 16:47:35;;;;;;;5.90;2.80;;;;;;;;;;5055492;28;20501;-81
2021/05/29 16:50:20;;;;;;;4.15;2.40;;;;;;;;;;5051206;28;20130;-80
2021/05/29 16:53:05;;;;;;;3.28;1.90;;;;;;;;;;5051939;28;20021;-80
2021/05/29 16:55:53;;;;;;;1.77;1.50;;;;;;;;;;5055539;28;20019;-80
2021/05/29 16:58:38;;;;;;;3.92;1.83;;;;;;;;;;5057426;28;20040;-80
2021/05/29 17:01:23;;;;;;;2.13;1.45;;;;;;;;;;5051310;28;20043;-81
2021/05/29 17:04:09;;;;;;;2.30;1.20;;;;;;;;;;5052894;28;20048;-81
2021/05/29 17:06:54;;;;;;;2.15;1.48;;;;;;;;;;5055914;28;20066;-81
2021/05/29 17:09:39;;;;;;;1.88;1.60;;;;;;;;;;5030661;28;20632;-81